sensor_id;sensor_type;location;lat;lon;timestamp;pressure;altitude;pressure_sealevel;temperature;humidity
69239;BME280;56349;51.816;-0.026;2023-06-04T00:00:46;101812.15;;;24.72;31.75
69239;BME280;56349;51.816;-0.026;2023-06-04T00:03:11;101814.11;;;24.86;31.84
69239;BME280;56349;51.816;-0.026;2023-06-04T00:05:37;101813.57;;;24.98;31.95
69239;BME280;56349;51.816;-0.026;2023-06-04T00:08:03;101813.57;;;24.46;32.05
69239;BME280;56349;51.816;-0.026;2023-06-04T00:10:29;101817.82;;;24.60;32.13
69239;BME280;56349;51.816;-0.026;2023-06-04T00:12:55;101819.48;;;24.75;32.22
69239;BME280;56349;51.816;-0.026;2023-06-04T00:15:21;101819.68;;;24.68;32.30
69239;BME280;56349;51.816;-0.026;2023-06-04T00:17:47;101818.06;;;24.62;32.39
69239;BME280;56349;51.816;-0.026;2023-06-04T00:20:13;101817.11;;;24.32;32.46
69239;BME280;56349;51.816;-0.026;2023-06-04T00:22:39;101820.12;;;24.49;32.52
69239;BME280;56349;51.816;-0.026;2023-06-04T00:25:05;101819.53;;;24.21;32.59
69239;BME280;56349;51.816;-0.026;2023-06-04T00:27:30;101824.58;;;24.37;32.66
69239;BME280;56349;51.816;-0.026;2023-06-04T00:29:56;101826.23;;;24.32;32.73
69239;BME280;56349;51.816;-0.026;2023-06-04T00:32:22;101828.14;;;24.05;32.80
69239;BME280;56349;51.816;-0.026;2023-06-04T00:34:51;101827.82;;;24.22;32.85
69239;BME280;56349;51.816;-0.026;2023-06-04T00:37:13;101831.10;;;24.19;32.88
69239;BME280;56349;51.816;-0.026;2023-06-04T00:39:39;101832.01;;;24.15;32.95
69239;BME280;56349;51.816;-0.026;2023-06-04T00:42:05;101834.83;;;24.10;32.99
69239;BME280;56349;51.816;-0.026;2023-06-04T00:44:30;101836.65;;;24.05;33.05
69239;BME280;56349;51.816;-0.026;2023-06-04T00:46:56;101837.68;;;24.01;33.09
69239;BME280;56349;51.816;-0.026;2023-06-04T00:49:22;101838.19;;;23.98;33.12
69239;BME280;56349;51.816;-0.026;2023-06-04T00:51:49;101837.97;;;23.95;33.16
69239;BME280;56349;51.816;-0.026;2023-06-04T00:54:15;101836.54;;;23.91;33.19
69239;BME280;56349;51.816;-0.026;2023-06-04T00:56:39;101838.03;;;23.86;33.24
69239;BME280;56349;51.816;-0.026;2023-06-04T00:59:05;101837.43;;;24.09;33.29
69239;BME280;56349;51.816;-0.026;2023-06-04T01:01:37;101835.17;;;24.04;33.34
69239;BME280;56349;51.816;-0.026;2023-06-04T01:03:58;101835.26;;;24.00;33.38
69239;BME280;56349;51.816;-0.026;2023-06-04T01:06:31;101835.11;;;23.97;33.40
69239;BME280;56349;51.816;-0.026;2023-06-04T01:08:49;101834.01;;;24.15;33.44
69239;BME280;56349;51.816;-0.026;2023-06-04T01:11:15;101834.56;;;24.12;33.47
69239;BME280;56349;51.816;-0.026;2023-06-04T01:13:40;101829.22;;;23.85;33.50
69239;BME280;56349;51.816;-0.026;2023-06-04T01:16:07;101823.02;;;23.81;33.54
69239;BME280;56349;51.816;-0.026;2023-06-04T01:18:33;101827.43;;;23.53;33.55
69239;BME280;56349;51.816;-0.026;2023-06-04T01:21:00;101829.67;;;23.51;33.57
69239;BME280;56349;51.816;-0.026;2023-06-04T01:23:30;101829.32;;;23.76;33.57
69239;BME280;56349;51.816;-0.026;2023-06-04T01:25:49;101829.84;;;23.73;33.61
69239;BME280;56349;51.816;-0.026;2023-06-04T01:28:14;101825.24;;;23.45;33.58
69239;BME280;56349;51.816;-0.026;2023-06-04T01:30:42;101827.28;;;23.42;33.62
69239;BME280;56349;51.816;-0.026;2023-06-04T01:33:04;101822.34;;;23.88;33.67
69239;BME280;56349;51.816;-0.026;2023-06-04T01:35:30;101818.84;;;23.63;33.68
69239;BME280;56349;51.816;-0.026;2023-06-04T01:37:57;101814.83;;;23.60;33.69
69239;BME280;56349;51.816;-0.026;2023-06-04T01:40:23;101813.80;;;23.57;33.74
69239;BME280;56349;51.816;-0.026;2023-06-04T01:42:48;101816.53;;;23.76;33.76
69239;BME280;56349;51.816;-0.026;2023-06-04T01:45:14;101815.92;;;23.72;33.79
69239;BME280;56349;51.816;-0.026;2023-06-04T01:47:40;101816.95;;;23.47;33.82
69239;BME280;56349;51.816;-0.026;2023-06-04T01:50:07;101819.40;;;23.67;33.83
69239;BME280;56349;51.816;-0.026;2023-06-04T01:52:32;101815.89;;;23.65;33.85
69239;BME280;56349;51.816;-0.026;2023-06-04T01:55:03;101817.08;;;23.63;33.85
69239;BME280;56349;51.816;-0.026;2023-06-04T01:57:23;101813.74;;;23.61;33.86
69239;BME280;56349;51.816;-0.026;2023-06-04T01:59:49;101815.55;;;23.39;33.87
69239;BME280;56349;51.816;-0.026;2023-06-04T02:02:15;101815.37;;;23.39;33.85
69239;BME280;56349;51.816;-0.026;2023-06-04T02:04:41;101814.07;;;23.58;33.86
69239;BME280;56349;51.816;-0.026;2023-06-04T02:07:08;101812.93;;;23.55;33.89
69239;BME280;56349;51.816;-0.026;2023-06-04T02:09:33;101813.92;;;23.54;33.89
69239;BME280;56349;51.816;-0.026;2023-06-04T02:11:59;101816.64;;;23.50;33.93
69239;BME280;56349;51.816;-0.026;2023-06-04T02:14:25;101814.94;;;23.26;33.94
69239;BME280;56349;51.816;-0.026;2023-06-04T02:16:51;101818.72;;;23.45;33.95
69239;BME280;56349;51.816;-0.026;2023-06-04T02:19:17;101816.74;;;23.43;33.97
69239;BME280;56349;51.816;-0.026;2023-06-04T02:21:43;101815.49;;;23.41;33.98
69239;BME280;56349;51.816;-0.026;2023-06-04T02:24:09;101817.28;;;23.17;34.00
69239;BME280;56349;51.816;-0.026;2023-06-04T02:26:35;101819.67;;;23.36;34.01
69239;BME280;56349;51.816;-0.026;2023-06-04T02:29:01;101820.42;;;23.32;34.05
69239;BME280;56349;51.816;-0.026;2023-06-04T02:31:27;101821.29;;;23.30;34.07
69239;BME280;56349;51.816;-0.026;2023-06-04T02:33:53;101822.23;;;23.27;34.09
69239;BME280;56349;51.816;-0.026;2023-06-04T02:36:23;101818.84;;;23.27;34.09
69239;BME280;56349;51.816;-0.026;2023-06-04T02:38:45;101821.24;;;23.24;34.11
69239;BME280;56349;51.816;-0.026;2023-06-04T02:41:11;101824.40;;;23.22;34.11
69239;BME280;56349;51.816;-0.026;2023-06-04T02:43:37;101822.55;;;23.19;34.14
69239;BME280;56349;51.816;-0.026;2023-06-04T02:46:02;101822.95;;;23.18;34.15
69239;BME280;56349;51.816;-0.026;2023-06-04T02:48:28;101820.77;;;23.16;34.16
69239;BME280;56349;51.816;-0.026;2023-06-04T02:50:54;101820.16;;;23.13;34.16
69239;BME280;56349;51.816;-0.026;2023-06-04T02:53:20;101819.90;;;23.10;34.18
69239;BME280;56349;51.816;-0.026;2023-06-04T02:55:46;101819.49;;;23.08;34.20
69239;BME280;56349;51.816;-0.026;2023-06-04T02:58:12;101818.85;;;23.07;34.20
69239;BME280;56349;51.816;-0.026;2023-06-04T03:00:38;101819.43;;;22.83;34.22
69239;BME280;56349;51.816;-0.026;2023-06-04T03:03:03;101819.65;;;23.04;34.23
69239;BME280;56349;51.816;-0.026;2023-06-04T03:05:29;101820.03;;;23.02;34.22
69239;BME280;56349;51.816;-0.026;2023-06-04T03:07:55;101817.40;;;22.99;34.24
69239;BME280;56349;51.816;-0.026;2023-06-04T03:10:21;101815.33;;;23.46;34.25
69239;BME280;56349;51.816;-0.026;2023-06-04T03:12:47;101813.72;;;22.95;34.27
69239;BME280;56349;51.816;-0.026;2023-06-04T03:15:13;101814.02;;;22.93;34.26
69239;BME280;56349;51.816;-0.026;2023-06-04T03:17:39;101812.01;;;22.91;34.29
69239;BME280;56349;51.816;-0.026;2023-06-04T03:20:05;101813.04;;;22.89;34.29
69239;BME280;56349;51.816;-0.026;2023-06-04T03:22:30;101814.00;;;23.37;34.30
69239;BME280;56349;51.816;-0.026;2023-06-04T03:24:56;101811.75;;;22.87;34.30
69239;BME280;56349;51.816;-0.026;2023-06-04T03:27:22;101810.17;;;23.12;34.30
69239;BME280;56349;51.816;-0.026;2023-06-04T03:29:48;101810.85;;;23.10;34.33
69239;BME280;56349;51.816;-0.026;2023-06-04T03:32:14;101810.03;;;22.83;34.39
69239;BME280;56349;51.816;-0.026;2023-06-04T03:34:40;101810.32;;;22.85;34.45
69239;BME280;56349;51.816;-0.026;2023-06-04T03:37:06;101811.74;;;22.91;34.44
69239;BME280;56349;51.816;-0.026;2023-06-04T03:39:32;101815.08;;;22.81;34.39
69239;BME280;56349;51.816;-0.026;2023-06-04T03:41:58;101816.31;;;22.95;34.29
69239;BME280;56349;51.816;-0.026;2023-06-04T03:44:24;101821.42;;;23.35;34.15
69239;BME280;56349;51.816;-0.026;2023-06-04T03:46:50;101818.18;;;23.32;33.96
69239;BME280;56349;51.816;-0.026;2023-06-04T03:49:15;101816.46;;;23.51;33.77
69239;BME280;56349;51.816;-0.026;2023-06-04T03:51:41;101816.11;;;23.67;33.54
69239;BME280;56349;51.816;-0.026;2023-06-04T03:54:06;101810.13;;;23.53;33.33
69239;BME280;56349;51.816;-0.026;2023-06-04T03:56:31;101809.12;;;23.91;33.16
69239;BME280;56349;51.816;-0.026;2023-06-04T03:58:57;101809.75;;;23.99;33.00
69239;BME280;56349;51.816;-0.026;2023-06-04T04:01:23;101808.69;;;24.02;32.89
69239;BME280;56349;51.816;-0.026;2023-06-04T04:03:48;101809.87;;;23.76;32.80
69239;BME280;56349;51.816;-0.026;2023-06-04T04:06:15;101814.07;;;23.75;32.76
69239;BME280;56349;51.816;-0.026;2023-06-04T04:08:40;101816.52;;;23.73;32.72
69239;BME280;56349;51.816;-0.026;2023-06-04T04:11:06;101817.48;;;23.69;32.70
69239;BME280;56349;51.816;-0.026;2023-06-04T04:13:32;101815.49;;;24.14;32.69
69239;BME280;56349;51.816;-0.026;2023-06-04T04:15:58;101813.54;;;23.60;32.67
69239;BME280;56349;51.816;-0.026;2023-06-04T04:18:24;101811.00;;;23.82;32.68
69239;BME280;56349;51.816;-0.026;2023-06-04T04:20:50;101811.10;;;23.75;32.69
69239;BME280;56349;51.816;-0.026;2023-06-04T04:23:16;101812.68;;;23.69;32.74
69239;BME280;56349;51.816;-0.026;2023-06-04T04:25:42;101811.52;;;23.64;32.78
69239;BME280;56349;51.816;-0.026;2023-06-04T04:28:08;101812.47;;;23.60;32.80
69239;BME280;56349;51.816;-0.026;2023-06-04T04:30:34;101811.30;;;23.55;32.83
69239;BME280;56349;51.816;-0.026;2023-06-04T04:33:00;101813.16;;;23.48;32.87
69239;BME280;56349;51.816;-0.026;2023-06-04T04:35:26;101813.30;;;23.63;32.94
69239;BME280;56349;51.816;-0.026;2023-06-04T04:37:52;101812.55;;;23.33;32.99
69239;BME280;56349;51.816;-0.026;2023-06-04T04:40:17;101811.92;;;23.50;33.02
69239;BME280;56349;51.816;-0.026;2023-06-04T04:42:43;101812.69;;;23.44;33.09
69239;BME280;56349;51.816;-0.026;2023-06-04T04:45:10;101813.71;;;23.38;33.12
69239;BME280;56349;51.816;-0.026;2023-06-04T04:47:34;101814.47;;;23.33;33.14
69239;BME280;56349;51.816;-0.026;2023-06-04T04:50:01;101815.67;;;23.28;33.18
69239;BME280;56349;51.816;-0.026;2023-06-04T04:52:26;101818.77;;;23.25;33.20
69239;BME280;56349;51.816;-0.026;2023-06-04T04:54:52;101821.86;;;23.22;33.23
69239;BME280;56349;51.816;-0.026;2023-06-04T04:57:18;101824.66;;;23.16;33.25
69239;BME280;56349;51.816;-0.026;2023-06-04T04:59:45;101823.68;;;23.11;33.28
69239;BME280;56349;51.816;-0.026;2023-06-04T05:02:09;101823.39;;;23.07;33.29
69239;BME280;56349;51.816;-0.026;2023-06-04T05:04:35;101821.08;;;23.03;33.32
69239;BME280;56349;51.816;-0.026;2023-06-04T05:07:01;101818.91;;;22.99;33.36
69239;BME280;56349;51.816;-0.026;2023-06-04T05:09:27;101815.23;;;23.43;33.38
69239;BME280;56349;51.816;-0.026;2023-06-04T05:11:53;101816.35;;;22.90;33.42
69239;BME280;56349;51.816;-0.026;2023-06-04T05:14:19;101817.29;;;22.86;33.45
69239;BME280;56349;51.816;-0.026;2023-06-04T05:16:45;101814.03;;;22.82;33.49
69239;BME280;56349;51.816;-0.026;2023-06-04T05:19:11;101815.91;;;22.79;33.52
69239;BME280;56349;51.816;-0.026;2023-06-04T05:21:37;101815.01;;;22.76;33.54
69239;BME280;56349;51.816;-0.026;2023-06-04T05:24:03;101817.68;;;22.73;33.56
69239;BME280;56349;51.816;-0.026;2023-06-04T05:26:28;101819.68;;;22.72;33.57
69239;BME280;56349;51.816;-0.026;2023-06-04T05:28:54;101821.40;;;22.69;33.59
69239;BME280;56349;51.816;-0.026;2023-06-04T05:31:20;101819.04;;;22.65;33.70
69239;BME280;56349;51.816;-0.026;2023-06-04T05:33:46;101819.63;;;22.64;33.79
69239;BME280;56349;51.816;-0.026;2023-06-04T05:36:12;101821.50;;;22.67;33.98
69239;BME280;56349;51.816;-0.026;2023-06-04T05:38:37;101818.89;;;22.70;34.32
69239;BME280;56349;51.816;-0.026;2023-06-04T05:41:03;101815.23;;;23.04;34.75
69239;BME280;56349;51.816;-0.026;2023-06-04T05:43:29;101813.80;;;22.87;35.14
69239;BME280;56349;51.816;-0.026;2023-06-04T05:45:55;101813.91;;;23.04;35.13
69239;BME280;56349;51.816;-0.026;2023-06-04T05:48:21;101816.99;;;23.26;34.94
69239;BME280;56349;51.816;-0.026;2023-06-04T05:50:47;101819.41;;;23.25;34.70
69239;BME280;56349;51.816;-0.026;2023-06-04T05:53:13;101819.17;;;23.51;34.44
69239;BME280;56349;51.816;-0.026;2023-06-04T05:55:39;101821.68;;;23.51;34.10
69239;BME280;56349;51.816;-0.026;2023-06-04T05:58:05;101822.93;;;23.79;33.67
69239;BME280;56349;51.816;-0.026;2023-06-04T06:00:31;101826.31;;;24.05;33.40
69239;BME280;56349;51.816;-0.026;2023-06-04T06:02:57;101828.92;;;24.33;32.97
69239;BME280;56349;51.816;-0.026;2023-06-04T06:05:22;101829.50;;;24.18;32.65
69239;BME280;56349;51.816;-0.026;2023-06-04T06:07:47;101827.39;;;24.46;32.24
69239;BME280;56349;51.816;-0.026;2023-06-04T06:10:12;101831.73;;;24.47;31.85
69239;BME280;56349;51.816;-0.026;2023-06-04T06:12:38;101832.85;;;24.71;31.33
69239;BME280;56349;51.816;-0.026;2023-06-04T06:15:05;101833.91;;;25.15;30.42
69239;BME280;56349;51.816;-0.026;2023-06-04T06:17:30;101838.96;;;25.03;29.93
69239;BME280;56349;51.816;-0.026;2023-06-04T06:19:56;101839.08;;;25.13;29.46
69239;BME280;56349;51.816;-0.026;2023-06-04T06:22:22;101840.03;;;25.21;29.11
69239;BME280;56349;51.816;-0.026;2023-06-04T06:24:47;101839.13;;;25.51;28.87
69239;BME280;56349;51.816;-0.026;2023-06-04T06:27:13;101839.83;;;25.23;28.92
69239;BME280;56349;51.816;-0.026;2023-06-04T06:29:39;101836.98;;;25.18;28.87
69239;BME280;56349;51.816;-0.026;2023-06-04T06:32:05;101840.22;;;25.11;28.94
69239;BME280;56349;51.816;-0.026;2023-06-04T06:34:31;101838.26;;;25.02;28.87
69239;BME280;56349;51.816;-0.026;2023-06-04T06:36:57;101837.34;;;25.17;28.88
69239;BME280;56349;51.816;-0.026;2023-06-04T06:39:23;101837.08;;;25.03;28.87
69239;BME280;56349;51.816;-0.026;2023-06-04T06:41:49;101837.45;;;24.91;28.89
69239;BME280;56349;51.816;-0.026;2023-06-04T06:44:15;101839.74;;;24.77;28.93
69239;BME280;56349;51.816;-0.026;2023-06-04T06:46:40;101841.05;;;24.62;29.02
69239;BME280;56349;51.816;-0.026;2023-06-04T06:49:06;101841.55;;;24.49;29.14
69239;BME280;56349;51.816;-0.026;2023-06-04T06:51:33;101837.95;;;24.41;29.21
69239;BME280;56349;51.816;-0.026;2023-06-04T06:53:57;101839.93;;;24.37;29.25
69239;BME280;56349;51.816;-0.026;2023-06-04T06:56:23;101841.26;;;24.60;29.30
69239;BME280;56349;51.816;-0.026;2023-06-04T06:58:49;101842.51;;;24.41;29.31
69239;BME280;56349;51.816;-0.026;2023-06-04T07:01:15;101843.99;;;24.48;29.30
69239;BME280;56349;51.816;-0.026;2023-06-04T07:03:41;101843.27;;;24.57;29.16
69239;BME280;56349;51.816;-0.026;2023-06-04T07:06:07;101847.80;;;24.43;29.03
69239;BME280;56349;51.816;-0.026;2023-06-04T07:08:33;101853.40;;;24.83;28.94
69239;BME280;56349;51.816;-0.026;2023-06-04T07:10:59;101855.37;;;24.95;28.77
69239;BME280;56349;51.816;-0.026;2023-06-04T07:13:24;101858.52;;;25.08;28.67
69239;BME280;56349;51.816;-0.026;2023-06-04T07:15:50;101857.87;;;24.97;28.62
69239;BME280;56349;51.816;-0.026;2023-06-04T07:18:15;101855.46;;;25.41;28.45
69239;BME280;56349;51.816;-0.026;2023-06-04T07:20:41;101856.06;;;25.07;28.34
69239;BME280;56349;51.816;-0.026;2023-06-04T07:23:07;101855.50;;;25.22;28.20
69239;BME280;56349;51.816;-0.026;2023-06-04T07:25:33;101856.84;;;25.36;28.04
69239;BME280;56349;51.816;-0.026;2023-06-04T07:27:59;101858.75;;;25.49;27.92
69239;BME280;56349;51.816;-0.026;2023-06-04T07:30:25;101857.17;;;25.85;27.78
69239;BME280;56349;51.816;-0.026;2023-06-04T07:32:51;101856.17;;;25.76;27.66
69239;BME280;56349;51.816;-0.026;2023-06-04T07:35:17;101855.89;;;25.87;27.56
69239;BME280;56349;51.816;-0.026;2023-06-04T07:37:44;101856.20;;;25.95;27.43
69239;BME280;56349;51.816;-0.026;2023-06-04T07:40:10;101854.52;;;26.00;27.31
69239;BME280;56349;51.816;-0.026;2023-06-04T07:42:35;101855.12;;;25.80;27.26
69239;BME280;56349;51.816;-0.026;2023-06-04T07:45:00;101856.42;;;25.84;27.12
69239;BME280;56349;51.816;-0.026;2023-06-04T07:47:27;101858.10;;;25.81;27.18
69239;BME280;56349;51.816;-0.026;2023-06-04T07:49:52;101861.80;;;25.96;27.15
69239;BME280;56349;51.816;-0.026;2023-06-04T07:52:17;101859.22;;;25.85;27.25
69239;BME280;56349;51.816;-0.026;2023-06-04T07:54:43;101863.97;;;25.70;27.34
69239;BME280;56349;51.816;-0.026;2023-06-04T07:57:09;101860.67;;;25.34;27.42
69239;BME280;56349;51.816;-0.026;2023-06-04T07:59:35;101859.50;;;25.44;27.55
69239;BME280;56349;51.816;-0.026;2023-06-04T08:02:01;101861.00;;;25.48;27.71
69239;BME280;56349;51.816;-0.026;2023-06-04T08:04:27;101861.81;;;25.30;27.85
69239;BME280;56349;51.816;-0.026;2023-06-04T08:06:53;101859.37;;;25.12;28.01
69239;BME280;56349;51.816;-0.026;2023-06-04T08:09:19;101864.01;;;25.20;28.17
69239;BME280;56349;51.816;-0.026;2023-06-04T08:11:45;101863.59;;;25.03;28.34
69239;BME280;56349;51.816;-0.026;2023-06-04T08:14:11;101860.18;;;24.91;28.50
69239;BME280;56349;51.816;-0.026;2023-06-04T08:16:36;101863.99;;;24.79;28.76
69239;BME280;56349;51.816;-0.026;2023-06-04T08:19:02;101865.96;;;24.65;29.20
69239;BME280;56349;51.816;-0.026;2023-06-04T08:21:28;101862.82;;;24.50;29.44
69239;BME280;56349;51.816;-0.026;2023-06-04T08:23:55;101866.40;;;24.61;29.53
69239;BME280;56349;51.816;-0.026;2023-06-04T08:26:20;101865.80;;;24.71;29.62
69239;BME280;56349;51.816;-0.026;2023-06-04T08:28:47;101868.15;;;24.36;29.72
69239;BME280;56349;51.816;-0.026;2023-06-04T08:31:11;101863.85;;;24.44;29.87
69239;BME280;56349;51.816;-0.026;2023-06-04T08:33:36;101861.56;;;24.06;29.50
69239;BME280;56349;51.816;-0.026;2023-06-04T08:36:03;101859.76;;;24.35;28.75
69239;BME280;56349;51.816;-0.026;2023-06-04T08:38:28;101856.11;;;23.89;28.67
69239;BME280;56349;51.816;-0.026;2023-06-04T08:40:57;101855.88;;;23.73;28.36
69239;BME280;56349;51.816;-0.026;2023-06-04T08:43:20;101850.92;;;23.57;28.26
69239;BME280;56349;51.816;-0.026;2023-06-04T08:45:49;101848.15;;;23.70;28.22
69239;BME280;56349;51.816;-0.026;2023-06-04T08:48:10;101850.01;;;23.53;28.39
69239;BME280;56349;51.816;-0.026;2023-06-04T08:50:36;101853.10;;;23.12;28.41
69239;BME280;56349;51.816;-0.026;2023-06-04T08:53:01;101852.84;;;23.28;28.52
69239;BME280;56349;51.816;-0.026;2023-06-04T08:55:27;101850.96;;;23.19;28.63
69239;BME280;56349;51.816;-0.026;2023-06-04T08:57:52;101851.91;;;23.35;29.20
69239;BME280;56349;51.816;-0.026;2023-06-04T09:00:18;101855.13;;;23.29;29.59
69239;BME280;56349;51.816;-0.026;2023-06-04T09:02:43;101852.30;;;23.25;29.82
69239;BME280;56349;51.816;-0.026;2023-06-04T09:05:09;101852.81;;;23.00;29.99
69239;BME280;56349;51.816;-0.026;2023-06-04T09:07:35;101852.82;;;22.98;30.12
69239;BME280;56349;51.816;-0.026;2023-06-04T09:10:00;101852.65;;;23.16;30.24
69239;BME280;56349;51.816;-0.026;2023-06-04T09:12:26;101849.64;;;23.13;30.35
69239;BME280;56349;51.816;-0.026;2023-06-04T09:14:51;101851.43;;;23.10;30.45
69239;BME280;56349;51.816;-0.026;2023-06-04T09:17:21;101860.81;;;23.06;30.57
69239;BME280;56349;51.816;-0.026;2023-06-04T09:19:43;101861.93;;;23.02;30.66
69239;BME280;56349;51.816;-0.026;2023-06-04T09:22:09;101864.43;;;22.77;30.76
69239;BME280;56349;51.816;-0.026;2023-06-04T09:24:39;101862.30;;;22.97;30.82
69239;BME280;56349;51.816;-0.026;2023-06-04T09:27:09;101859.22;;;22.97;30.92
69239;BME280;56349;51.816;-0.026;2023-06-04T09:29:26;101856.02;;;22.95;31.16
69239;BME280;56349;51.816;-0.026;2023-06-04T09:31:58;101856.56;;;22.94;31.16
69239;BME280;56349;51.816;-0.026;2023-06-04T09:34:15;101861.19;;;22.99;31.17
69239;BME280;56349;51.816;-0.026;2023-06-04T09:36:41;101864.15;;;22.95;30.68
69239;BME280;56349;51.816;-0.026;2023-06-04T09:39:15;101861.32;;;23.37;30.47
69239;BME280;56349;51.816;-0.026;2023-06-04T09:41:33;101866.34;;;22.81;30.37
69239;BME280;56349;51.816;-0.026;2023-06-04T09:44:00;101866.22;;;23.03;30.42
69239;BME280;56349;51.816;-0.026;2023-06-04T09:46:24;101866.62;;;22.70;30.48
69239;BME280;56349;51.816;-0.026;2023-06-04T09:48:59;101870.69;;;22.66;30.74
69239;BME280;56349;51.816;-0.026;2023-06-04T09:51:16;101872.39;;;22.64;30.95
69239;BME280;56349;51.816;-0.026;2023-06-04T09:53:41;101872.23;;;22.89;31.09
69239;BME280;56349;51.816;-0.026;2023-06-04T09:56:07;101871.35;;;22.88;31.02
69239;BME280;56349;51.816;-0.026;2023-06-04T09:58:32;101873.78;;;22.63;31.10
69239;BME280;56349;51.816;-0.026;2023-06-04T10:00:58;101869.90;;;22.64;31.11
69239;BME280;56349;51.816;-0.026;2023-06-04T10:03:25;101868.32;;;22.63;31.06
69239;BME280;56349;51.816;-0.026;2023-06-04T10:05:49;101871.30;;;23.11;31.04
69239;BME280;56349;51.816;-0.026;2023-06-04T10:08:15;101872.02;;;22.60;31.09
69239;BME280;56349;51.816;-0.026;2023-06-04T10:10:41;101875.67;;;22.59;31.15
69239;BME280;56349;51.816;-0.026;2023-06-04T10:13:09;101873.26;;;22.57;31.17
69239;BME280;56349;51.816;-0.026;2023-06-04T10:15:32;101869.97;;;22.82;31.13
69239;BME280;56349;51.816;-0.026;2023-06-04T10:17:58;101871.47;;;23.03;31.15
69239;BME280;56349;51.816;-0.026;2023-06-04T10:20:23;101866.30;;;23.02;31.18
69239;BME280;56349;51.816;-0.026;2023-06-04T10:22:49;101869.42;;;23.01;31.21
69239;BME280;56349;51.816;-0.026;2023-06-04T10:25:16;101870.40;;;22.50;31.23
69239;BME280;56349;51.816;-0.026;2023-06-04T10:27:40;101870.64;;;22.49;31.24
69239;BME280;56349;51.816;-0.026;2023-06-04T10:30:08;101872.04;;;22.75;31.24
69239;BME280;56349;51.816;-0.026;2023-06-04T10:32:34;101872.12;;;22.75;31.24
69239;BME280;56349;51.816;-0.026;2023-06-04T10:34:58;101875.00;;;22.48;31.23
69239;BME280;56349;51.816;-0.026;2023-06-04T10:37:25;101875.43;;;22.76;31.20
69239;BME280;56349;51.816;-0.026;2023-06-04T10:39:51;101871.00;;;22.47;31.20
69239;BME280;56349;51.816;-0.026;2023-06-04T10:42:15;101872.38;;;22.46;31.20
69239;BME280;56349;51.816;-0.026;2023-06-04T10:44:45;101871.86;;;22.94;31.21
69239;BME280;56349;51.816;-0.026;2023-06-04T10:49:33;101869.46;;;22.42;31.21
69239;BME280;56349;51.816;-0.026;2023-06-04T10:54:25;101876.07;;;22.42;31.15
69239;BME280;56349;51.816;-0.026;2023-06-04T10:56:50;101873.93;;;22.91;31.11
69239;BME280;56349;51.816;-0.026;2023-06-04T10:59:17;101877.15;;;22.68;31.06
69239;BME280;56349;51.816;-0.026;2023-06-04T11:01:42;101873.32;;;22.90;31.00
69239;BME280;56349;51.816;-0.026;2023-06-04T11:06:33;101873.73;;;22.37;30.91
69239;BME280;56349;51.816;-0.026;2023-06-04T11:09:03;101864.80;;;22.65;30.81
69239;BME280;56349;51.816;-0.026;2023-06-04T11:11:24;101864.74;;;22.87;30.83
69239;BME280;56349;51.816;-0.026;2023-06-04T11:13:50;101864.45;;;22.88;30.88
69239;BME280;56349;51.816;-0.026;2023-06-04T11:16:17;101866.17;;;22.66;30.94
69239;BME280;56349;51.816;-0.026;2023-06-04T11:18:42;101862.46;;;22.39;30.94
69239;BME280;56349;51.816;-0.026;2023-06-04T11:21:07;101865.48;;;22.66;30.93
69239;BME280;56349;51.816;-0.026;2023-06-04T11:23:34;101862.93;;;22.40;30.91
69239;BME280;56349;51.816;-0.026;2023-06-04T11:26:00;101861.57;;;22.90;30.86
69239;BME280;56349;51.816;-0.026;2023-06-04T11:28:25;101863.12;;;22.92;30.80
69239;BME280;56349;51.816;-0.026;2023-06-04T11:30:56;101861.93;;;22.93;30.70
69239;BME280;56349;51.816;-0.026;2023-06-04T11:33:17;101859.17;;;22.45;30.68
69239;BME280;56349;51.816;-0.026;2023-06-04T11:35:43;101861.33;;;22.95;30.65
69239;BME280;56349;51.816;-0.026;2023-06-04T11:38:09;101863.39;;;22.95;30.62
69239;BME280;56349;51.816;-0.026;2023-06-04T11:40:33;101860.01;;;22.73;30.59
69239;BME280;56349;51.816;-0.026;2023-06-04T11:42:59;101860.62;;;22.50;30.57
69239;BME280;56349;51.816;-0.026;2023-06-04T11:45:27;101862.30;;;22.79;30.61
69239;BME280;56349;51.816;-0.026;2023-06-04T11:47:52;101861.55;;;23.02;30.69
69239;BME280;56349;51.816;-0.026;2023-06-04T11:50:16;101860.97;;;23.04;30.77
69239;BME280;56349;51.816;-0.026;2023-06-04T11:52:42;101858.66;;;22.57;30.85
69239;BME280;56349;51.816;-0.026;2023-06-04T11:55:09;101856.69;;;22.86;30.99
69239;BME280;56349;51.816;-0.026;2023-06-04T11:57:32;101855.13;;;22.63;31.08
69239;BME280;56349;51.816;-0.026;2023-06-04T11:59:59;101853.09;;;22.96;31.10
69239;BME280;56349;51.816;-0.026;2023-06-04T12:02:24;101854.34;;;23.03;31.17
69239;BME280;56349;51.816;-0.026;2023-06-04T12:04:50;101851.66;;;23.33;31.27
69239;BME280;56349;51.816;-0.026;2023-06-04T12:07:20;101845.05;;;23.15;31.30
69239;BME280;56349;51.816;-0.026;2023-06-04T12:09:42;101852.32;;;22.91;31.40
69239;BME280;56349;51.816;-0.026;2023-06-04T12:12:08;101849.33;;;23.21;31.65
69239;BME280;56349;51.816;-0.026;2023-06-04T12:14:33;101851.49;;;22.98;31.94
69239;BME280;56349;51.816;-0.026;2023-06-04T12:17:00;101842.88;;;23.01;32.23
69239;BME280;56349;51.816;-0.026;2023-06-04T12:19:25;101840.37;;;23.05;32.52
69239;BME280;56349;51.816;-0.026;2023-06-04T12:24:16;101836.43;;;23.12;32.83
69239;BME280;56349;51.816;-0.026;2023-06-04T12:26:41;101835.30;;;23.16;32.92
69239;BME280;56349;51.816;-0.026;2023-06-04T12:29:09;101837.25;;;23.21;32.98
69239;BME280;56349;51.816;-0.026;2023-06-04T12:31:32;101835.36;;;23.26;33.02
69239;BME280;56349;51.816;-0.026;2023-06-04T12:34:00;101825.35;;;23.33;33.07
69239;BME280;56349;51.816;-0.026;2023-06-04T12:36:24;101831.42;;;23.41;33.03
69239;BME280;56349;51.816;-0.026;2023-06-04T12:38:50;101832.55;;;23.50;32.93
69239;BME280;56349;51.816;-0.026;2023-06-04T12:41:15;101833.59;;;23.44;32.72